Time;durP1;ratioP1;P1;durP2;ratioP2;P2;SDS_P1;SDS_P2;PMS_P1;PMS_P2;Temp;Humidity;BMP_temperature;BMP_pressure;BME280_temperature;BME280_humidity;BME280_pressure;Samples;Min_cycle;Max_cycle;Signal;HPM_P1;HPM_P2
2023/07/13 00:01:46;;;;;;;5.32;4.78;;;;;;;18.66;100.00;95167.19;5017100;28;20072;-79
2023/07/13 00:04:13;;;;;;;4.30;3.97;;;;;;;18.53;100.00;95156.81;5018149;28;20030;-82
2023/07/13 00:06:39;;;;;;;6.38;4.00;;;;;;;18.44;100.00;95172.78;5000090;28;20030;-83
2023/07/13 00:09:04;;;;;;;5.88;4.18;;;;;;;18.43;100.00;95188.72;5012026;28;20026;-81
2023/07/13 00:11:29;;;;;;;7.05;4.22;;;;;;;18.67;100.00;95185.34;5016261;28;20415;-80
2023/07/13 00:13:55;;;;;;;5.25;4.72;;;;;;;18.70;100.00;95177.06;5002100;28;20037;-79
2023/07/13 00:16:20;;;;;;;6.15;5.15;;;;;;;18.71;100.00;95165.56;4999991;28;20021;-80
2023/07/13 00:18:47;;;;;;;4.43;4.03;;;;;;;18.55;100.00;95155.59;5000895;28;20036;-80
2023/07/13 00:21:12;;;;;;;6.32;4.35;;;;;;;18.32;100.00;95160.59;5017705;28;20125;-82
2023/07/13 00:23:40;;;;;;;5.30;4.13;;;;;;;18.19;100.00;95182.47;5015843;28;20503;-82
2023/07/13 00:26:08;;;;;;;5.38;4.70;;;;;;;18.28;100.00;95170.69;5000867;28;20032;-79
2023/07/13 00:28:34;;;;;;;4.75;3.60;;;;;;;18.39;100.00;95158.72;4999469;28;20096;-81
2023/07/13 00:31:00;;;;;;;11.25;4.95;;;;;;;18.24;100.00;95153.78;4990549;28;20030;-83
2023/07/13 00:33:27;;;;;;;4.90;4.50;;;;;;;18.17;100.00;95139.13;5001128;28;20028;-80
2023/07/13 00:35:54;;;;;;;7.13;4.45;;;;;;;18.14;100.00;95140.31;5000532;28;20108;-82
2023/07/13 00:38:21;;;;;;;8.38;4.75;;;;;;;18.15;100.00;95134.06;5000476;28;20136;-81
2023/07/13 00:40:46;;;;;;;9.38;4.82;;;;;;;18.27;100.00;95118.44;5001054;28;20368;-81
2023/07/13 00:43:18;;;;;;;6.43;4.00;;;;;;;18.19;100.00;95106.41;5000694;28;20041;-80
2023/07/13 00:45:43;;;;;;;4.90;3.88;;;;;;;18.31;100.00;95107.31;4999239;28;20494;-80
2023/07/13 00:48:11;;;;;;;4.88;4.38;;;;;;;18.24;100.00;95114.44;5001710;28;20069;-81
2023/07/13 00:50:36;;;;;;;7.05;4.30;;;;;;;18.36;100.00;95144.22;4999351;28;20072;-82
2023/07/13 00:53:03;;;;;;;4.50;4.10;;;;;;;18.25;100.00;95152.75;5000621;28;20387;-81
2023/07/13 00:55:28;;;;;;;4.68;4.03;;;;;;;18.18;100.00;95164.31;5001143;28;20075;-82
2023/07/13 00:57:54;;;;;;;4.82;4.10;;;;;;;18.09;100.00;95176.06;5013615;28;20622;-82
2023/07/13 01:00:20;;;;;;;5.28;3.95;;;;;;;18.13;100.00;95206.91;5017053;28;20494;-82
2023/07/13 01:02:47;;;;;;;8.05;4.15;;;;;;;18.13;100.00;95203.47;5015360;28;20612;-82
2023/07/13 01:05:13;;;;;;;4.13;3.70;;;;;;;18.13;100.00;95204.28;5001280;28;20037;-81
2023/07/13 01:07:40;;;;;;;5.85;4.22;;;;;;;18.12;100.00;95202.66;4999630;28;20022;-81
2023/07/13 01:10:07;;;;;;;4.75;4.25;;;;;;;18.13;100.00;95204.28;5000557;28;20113;-81
2023/07/13 01:12:32;;;;;;;5.07;4.57;;;;;;;18.07;100.00;95210.38;4990555;28;20029;-80
2023/07/13 01:15:00;;;;;;;5.18;4.22;;;;;;;18.02;100.00;95222.47;5032537;28;20430;-81
2023/07/13 01:17:26;;;;;;;5.78;4.60;;;;;;;17.91;100.00;95231.81;5030900;28;20383;-81
2023/07/13 01:19:51;;;;;;;6.07;4.53;;;;;;;17.88;100.00;95253.22;4999041;28;20084;-82
2023/07/13 01:22:18;;;;;;;5.10;4.60;;;;;;;18.04;100.00;95257.97;5000427;28;20029;-81
2023/07/13 01:24:46;;;;;;;4.95;4.50;;;;;;;18.02;100.00;95239.00;5014726;28;20026;-82
2023/07/13 01:27:14;;;;;;;6.10;4.57;;;;;;;17.78;100.00;95222.22;5000135;28;20034;-83
2023/07/13 01:29:43;;;;;;;5.32;4.82;;;;;;;17.55;100.00;95219.28;4999016;28;20022;-82
2023/07/13 01:32:12;;;;;;;5.50;4.05;;;;;;;17.48;100.00;95236.78;5000020;28;20436;-81
2023/07/13 01:34:42;;;;;;;4.78;4.15;;;;;;;17.56;100.00;95238.41;4999832;28;20037;-82
2023/07/13 01:37:08;;;;;;;4.55;4.15;;;;;;;17.50;100.00;95232.13;4987989;28;20038;-82
2023/07/13 01:39:34;;;;;;;4.88;3.88;;;;;;;17.58;100.00;95210.19;5019039;28;20402;-81
2023/07/13 01:41:59;;;;;;;5.80;3.70;;;;;;;17.53;100.00;95184.56;5031596;28;20026;-79
2023/07/13 01:44:25;;;;;;;5.30;3.72;;;;;;;17.57;100.00;95172.69;5016558;28;20160;-85
2023/07/13 01:46:51;;;;;;;4.40;3.85;;;;;;;17.65;100.00;95163.81;5000145;28;20025;-86
2023/07/13 01:49:17;;;;;;;5.50;3.67;;;;;;;17.66;100.00;95149.72;4999907;28;20555;-84
2023/07/13 01:51:42;;;;;;;5.97;5.15;;;;;;;17.65;100.00;95156.75;4999737;28;20566;-84
2023/07/13 01:54:08;;;;;;;6.93;3.92;;;;;;;17.60;100.00;95153.94;5017830;28;20434;-86
2023/07/13 01:56:33;;;;;;;4.68;3.58;;;;;;;17.64;100.00;95188.41;5015004;28;20013;-82
2023/07/13 01:58:58;;;;;;;7.53;4.50;;;;;;;17.35;100.00;95227.16;5005794;28;20117;-83
2023/07/13 02:01:24;;;;;;;5.18;3.85;;;;;;;17.28;100.00;95257.78;5002110;28;20022;-82
2023/07/13 02:03:49;;;;;;;5.68;4.35;;;;;;;17.47;100.00;95258.72;5014611;28;20025;-81
2023/07/13 02:06:15;;;;;;;4.72;4.20;;;;;;;17.50;100.00;95247.84;5016192;28;20034;-81
2023/07/13 02:08:42;;;;;;;4.13;3.70;;;;;;;17.58;100.00;95259.97;4998915;28;20058;-82
2023/07/13 02:11:08;;;;;;;7.00;4.43;;;;;;;17.41;100.00;95236.00;4999551;28;20567;-81
2023/07/13 02:13:33;;;;;;;4.90;3.97;;;;;;;17.39;100.00;95238.84;4998898;28;20022;-82
2023/07/13 02:15:58;;;;;;;4.60;4.20;;;;;;;17.37;100.00;95238.22;5034399;28;20112;-83
2023/07/13 02:18:24;;;;;;;4.80;4.10;;;;;;;17.35;100.00;95242.06;5005461;28;20038;-83
2023/07/13 02:20:49;;;;;;;6.53;4.07;;;;;;;17.33;100.00;95249.31;5002052;28;20041;-83
2023/07/13 02:23:15;;;;;;;4.40;4.07;;;;;;;17.12;100.00;95260.00;5016515;28;20030;-83
2023/07/13 02:25:40;;;;;;;5.25;4.75;;;;;;;17.02;100.00;95278.75;5001368;28;20030;-85
2023/07/13 02:28:06;;;;;;;4.90;4.30;;;;;;;17.11;100.00;95290.63;5004587;28;20491;-82
2023/07/13 02:30:32;;;;;;;5.18;4.10;;;;;;;17.05;100.00;95290.63;5019042;28;20426;-79
2023/07/13 02:32:57;;;;;;;8.35;4.40;;;;;;;16.86;100.00;95264.25;5019089;28;20033;-83
2023/07/13 02:35:23;;;;;;;5.95;4.45;;;;;;;16.77;100.00;95262.03;5019495;28;20629;-85
2023/07/13 02:37:48;;;;;;;5.55;4.10;;;;;;;16.86;100.00;95282.56;5017702;28;20033;-84
2023/07/13 02:40:14;;;;;;;4.28;3.53;;;;;;;16.84;100.00;95289.00;5004653;28;20103;-80
2023/07/13 02:42:40;;;;;;;5.55;4.05;;;;;;;16.83;100.00;95290.00;5014018;28;20415;-81
2023/07/13 02:45:07;;;;;;;4.75;4.30;;;;;;;16.80;100.00;95290.41;5003006;28;20137;-78
2023/07/13 02:47:33;;;;;;;5.65;4.15;;;;;;;16.85;100.00;95274.94;5001582;28;20709;-85
2023/07/13 02:49:59;;;;;;;5.65;4.45;;;;;;;16.85;100.00;95280.16;5002829;28;20129;-84
2023/07/13 02:52:25;;;;;;;6.05;3.83;;;;;;;16.86;100.00;95268.69;5002221;28;20041;-87
2023/07/13 02:54:50;;;;;;;9.15;4.57;;;;;;;16.86;100.00;95276.53;5017931;28;20132;-85
2023/07/13 02:57:16;;;;;;;7.63;4.45;;;;;;;16.78;100.00;95285.41;5030738;28;20139;-85
2023/07/13 02:59:41;;;;;;;6.30;4.40;;;;;;;16.75;100.00;95285.00;5003671;28;20479;-82
2023/07/13 03:02:07;;;;;;;7.55;4.85;;;;;;;16.76;100.00;95295.25;5003089;28;20037;-84
2023/07/13 03:04:32;;;;;;;6.38;4.63;;;;;;;16.74;100.00;95291.22;5000770;28;20092;-82
2023/07/13 03:06:58;;;;;;;6.30;4.40;;;;;;;16.71;100.00;95302.88;5003212;28;20030;-86
2023/07/13 03:09:25;;;;;;;7.65;4.18;;;;;;;16.83;100.00;95306.53;5018428;28;20030;-84
2023/07/13 03:11:54;;;;;;;6.38;4.85;;;;;;;17.05;100.00;95291.41;5031715;28;20021;-82
2023/07/13 03:14:23;;;;;;;7.90;4.63;;;;;;;17.14;100.00;95261.44;5010471;28;20518;-82
2023/07/13 03:16:48;;;;;;;5.28;4.82;;;;;;;17.20;100.00;95268.47;5014831;28;20538;-81
2023/07/13 03:19:14;;;;;;;4.53;4.07;;;;;;;17.13;100.00;95232.84;4992714;28;20105;-82
2023/07/13 03:21:39;;;;;;;9.95;4.43;;;;;;;16.94;100.00;95218.78;5018155;28;20125;-84
2023/07/13 03:24:05;;;;;;;8.45;4.47;;;;;;;17.11;100.00;95246.13;5035158;28;20052;-83
2023/07/13 03:26:31;;;;;;;4.85;4.40;;;;;;;17.09;100.00;95253.38;5001119;28;20510;-84
2023/07/13 03:28:57;;;;;;;6.60;4.32;;;;;;;17.11;100.00;95271.50;5017750;28;20038;-83
2023/07/13 03:31:28;;;;;;;5.75;3.97;;;;;;;17.32;100.00;95268.66;5002289;28;20092;-82
2023/07/13 03:33:54;;;;;;;4.30;3.78;;;;;;;17.34;100.00;95259.56;5017223;28;20507;-82
2023/07/13 03:36:23;;;;;;;4.65;4.25;;;;;;;17.67;100.00;95248.22;5002251;28;20050;-81
2023/07/13 03:38:51;;;;;;;5.90;4.23;;;;;;;18.10;100.00;95167.19;5000383;28;20028;-82
2023/07/13 03:41:17;;;;;;;6.38;3.90;;;;;;;19.05;100.00;95118.75;5018670;28;20032;-80
2023/07/13 03:43:42;;;;;;;4.93;3.92;;;;;;;19.69;100.00;95049.88;5000022;28;20030;-81
2023/07/13 03:46:08;;;;;;;3.90;3.60;;;;;;;20.28;100.00;95049.78;5018539;28;20116;-78
2023/07/13 03:48:34;;;;;;;4.63;3.38;;;;;;;20.95;100.00;95027.31;5015051;28;20087;-79
2023/07/13 03:50:59;;;;;;;11.10;4.28;;;;;;;21.30;100.00;95019.31;5015682;28;20731;-78
2023/07/13 03:53:25;;;;;;;4.03;3.08;;;;;;;21.66;100.00;95002.31;4999363;28;20427;-79
2023/07/13 03:55:51;;;;;;;3.83;3.30;;;;;;;22.31;100.00;94999.94;4998651;28;20036;-78
2023/07/13 03:58:34;;;;;;;3.78;3.47;;;;;;;22.33;100.00;95003.13;5014226;28;20108;-80
2023/07/13 04:01:01;;;;;;;4.88;3.80;;;;;;;22.54;100.00;95005.00;4992831;28;20125;-79
2023/07/13 04:03:27;;;;;;;4.00;3.30;;;;;;;23.12;100.00;95000.22;5007495;28;20026;-79
2023/07/13 04:06:00;;;;;;;3.47;3.28;;;;;;;23.20;100.00;94995.28;5001245;28;20030;-79
2023/07/13 04:08:36;;;;;;;4.10;3.70;;;;;;;23.43;100.00;94997.69;5000843;28;20030;-78
2023/07/13 04:11:03;;;;;;;5.53;3.60;;;;;;;23.70;100.00;95002.97;5034010;28;20041;-79
2023/07/13 04:13:28;;;;;;;5.82;3.33;;;;;;;24.16;100.00;95004.19;4999485;28;20049;-78
2023/07/13 04:15:54;;;;;;;3.63;3.00;;;;;;;24.36;100.00;95011.47;5002814;28;20026;-78
2023/07/13 04:18:20;;;;;;;4.72;3.67;;;;;;;24.64;100.00;95013.75;5016344;28;20026;-79
2023/07/13 04:20:47;;;;;;;7.90;2.92;;;;;;;24.78;100.00;95014.13;5001170;28;20036;-78
2023/07/13 04:23:12;;;;;;;3.72;3.30;;;;;;;25.33;100.00;95005.63;5016515;28;20041;-79
2023/07/13 04:25:38;;;;;;;4.47;3.13;;;;;;;25.62;99.78;95010.22;4998792;28;20416;-79
2023/07/13 04:28:04;;;;;;;3.60;3.30;;;;;;;25.75;98.01;95010.78;4999640;28;20041;-79
2023/07/13 04:30:30;;;;;;;3.42;3.13;;;;;;;26.28;94.43;95012.94;4999423;28;20053;-80
2023/07/13 04:32:55;;;;;;;3.63;2.42;;;;;;;26.59;94.25;95011.03;5000792;28;20467;-79
2023/07/13 04:35:21;;;;;;;3.40;3.17;;;;;;;26.92;93.29;95022.94;4998855;28;20048;-80
2023/07/13 04:37:49;;;;;;;3.50;2.90;;;;;;;27.16;90.07;95019.41;5000325;28;20041;-79
2023/07/13 04:40:18;;;;;;;17.55;3.72;;;;;;;27.56;88.74;95021.13;4999272;28;20026;-80
2023/07/13 04:42:44;;;;;;;8.75;3.25;;;;;;;27.73;90.73;95023.41;5000119;28;20026;-79
2023/07/13 04:45:10;;;;;;;4.65;2.95;;;;;;;27.71;89.60;95017.56;4999692;28;20064;-79
2023/07/13 04:47:36;;;;;;;4.05;3.00;;;;;;;28.70;83.18;95019.75;5011509;28;20105;-80
2023/07/13 04:50:02;;;;;;;6.22;3.13;;;;;;;28.41;86.23;95018.94;4999036;28;20562;-79
2023/07/13 04:52:27;;;;;;;3.45;3.17;;;;;;;28.44;82.93;95010.38;4998888;28;20105;-80
2023/07/13 04:54:52;;;;;;;4.55;3.00;;;;;;;29.47;76.57;95003.66;5001470;28;20033;-79
2023/07/13 04:57:18;;;;;;;4.20;3.20;;;;;;;29.74;79.51;95006.47;4997807;28;20053;-79
2023/07/13 04:59:43;;;;;;;3.10;2.90;;;;;;;28.69;84.82;95012.81;5006148;28;20030;-80
2023/07/13 05:02:09;;;;;;;3.25;2.95;;;;;;;30.11;80.29;95019.06;5043221;28;20056;-79
2023/07/13 05:04:34;;;;;;;4.70;2.90;;;;;;;30.62;75.14;95027.88;5032488;28;20123;-79
2023/07/13 05:07:00;;;;;;;3.50;2.90;;;;;;;30.46;76.56;95021.19;5000544;28;20043;-79
2023/07/13 05:09:25;;;;;;;5.00;2.93;;;;;;;30.73;74.61;95037.28;5000315;28;20022;-80
2023/07/13 05:11:51;;;;;;;3.60;3.33;;;;;;;30.86;77.66;95040.28;5000491;28;20535;-80
2023/07/13 05:14:16;;;;;;;5.10;3.77;;;;;;;31.13;78.29;95038.47;4998630;28;20447;-79
2023/07/13 05:16:42;;;;;;;5.33;4.17;;;;;;;31.73;73.10;95049.81;5000322;28;20049;-80
2023/07/13 05:19:08;;;;;;;5.97;3.60;;;;;;;31.04;74.16;95042.91;4988819;28;20439;-79
2023/07/13 05:21:34;;;;;;;2.97;2.78;;;;;;;32.14;69.80;95039.00;5030181;28;20014;-80
2023/07/13 05:23:59;;;;;;;3.30;3.00;;;;;;;32.89;59.00;95049.78;5016392;28;20949;-81
2023/07/13 05:26:25;;;;;;;4.23;3.20;;;;;;;32.33;58.80;95036.94;5019694;28;20095;-81
2023/07/13 05:28:50;;;;;;;4.47;3.10;;;;;;;33.19;60.09;95039.34;5021629;28;20068;-80
2023/07/13 05:31:16;;;;;;;5.23;3.17;;;;;;;33.45;58.11;95044.81;5003914;28;20033;-80
2023/07/13 05:33:41;;;;;;;4.03;3.63;;;;;;;34.04;54.11;95035.25;5013814;28;20105;-81
2023/07/13 05:36:07;;;;;;;9.13;3.40;;;;;;;34.64;51.47;95048.75;5017253;28;20061;-82
2023/07/13 05:38:32;;;;;;;3.97;3.23;;;;;;;34.76;52.93;95041.59;5013147;28;20079;-81
2023/07/13 05:40:58;;;;;;;4.57;3.23;;;;;;;35.37;53.70;95048.34;5019453;28;20022;-80
2023/07/13 05:43:24;;;;;;;5.93;3.10;;;;;;;35.78;50.10;95053.06;5011668;28;20029;-79
2023/07/13 05:45:54;;;;;;;3.83;3.35;;;;;;;35.84;49.83;95057.16;4999135;28;20568;-82
2023/07/13 05:48:19;;;;;;;8.07;3.85;;;;;;;36.89;46.74;95056.75;4998080;28;20100;-80
2023/07/13 05:50:45;;;;;;;12.20;3.57;;;;;;;37.31;43.16;95057.41;5001093;28;20137;-81
2023/07/13 05:53:12;;;;;;;6.87;3.23;;;;;;;37.38;44.97;95067.66;5017070;28;20036;-80
2023/07/13 05:55:42;;;;;;;3.47;3.03;;;;;;;37.81;44.06;95062.50;5022275;28;20041;-81
2023/07/13 05:58:07;;;;;;;3.88;3.47;;;;;;;37.13;44.14;95071.47;5019217;28;20037;-81
2023/07/13 06:00:33;;;;;;;6.00;4.03;;;;;;;37.78;42.96;95074.00;5013578;28;20021;-80
2023/07/13 06:02:59;;;;;;;4.37;3.97;;;;;;;37.88;42.38;95076.25;5002027;28;20021;-80
2023/07/13 06:05:24;;;;;;;4.20;3.53;;;;;;;37.04;43.26;95068.88;5010694;28;20283;-81
2023/07/13 06:07:50;;;;;;;4.70;3.10;;;;;;;37.90;42.45;95067.78;5016632;28;20037;-81
2023/07/13 06:10:15;;;;;;;6.50;4.00;;;;;;;38.36;41.63;95069.19;5025796;28;20493;-80
2023/07/13 06:12:41;;;;;;;6.03;3.50;;;;;;;38.74;39.57;95064.06;5015123;28;20565;-80
2023/07/13 06:15:07;;;;;;;5.53;3.80;;;;;;;38.73;39.63;95072.53;5011358;28;20044;-80
2023/07/13 06:17:32;;;;;;;;;;;;;;;39.23;38.19;95074.66;5020046;28;20100;-80
2023/07/13 06:19:57;;;;;;;5.17;3.87;;;;;;;38.77;37.94;95063.38;5051592;28;20496;-80
2023/07/13 06:22:23;;;;;;;6.57;4.67;;;;;;;38.22;40.90;95074.16;5003141;28;20021;-79
2023/07/13 06:24:48;;;;;;;6.00;4.03;;;;;;;37.98;41.26;95067.69;5017955;28;20033;-79
2023/07/13 06:27:14;;;;;;;5.15;4.65;;;;;;;38.12;41.27;95071.94;5019884;28;20036;-78
2023/07/13 06:29:40;;;;;;;5.03;4.53;;;;;;;37.89;40.92;95066.97;5021335;28;20036;-79
2023/07/13 06:32:06;;;;;;;6.47;4.70;;;;;;;37.85;39.83;95057.19;5033617;28;20120;-80
2023/07/13 06:34:31;;;;;;;7.85;4.35;;;;;;;35.05;46.18;95048.16;5005655;28;20033;-80
2023/07/13 06:36:57;;;;;;;7.43;4.50;;;;;;;33.73;53.99;95051.53;5006283;28;20025;-80
2023/07/13 06:39:22;;;;;;;4.40;4.00;;;;;;;33.31;55.50;95050.31;5019452;28;20017;-81
2023/07/13 06:41:47;;;;;;;7.67;4.40;;;;;;;33.26;57.03;95047.75;5020353;28;20895;-80
2023/07/13 06:44:13;;;;;;;6.10;4.17;;;;;;;33.83;53.50;95043.97;5009552;28;20271;-80
2023/07/13 06:46:38;;;;;;;10.23;4.63;;;;;;;33.90;54.80;95044.31;5012446;28;20438;-80
2023/07/13 06:49:04;;;;;;;4.60;4.20;;;;;;;37.43;45.97;95049.31;5012191;28;20100;-79
2023/07/13 06:51:29;;;;;;;4.78;4.38;;;;;;;38.21;42.55;95046.28;5011237;28;20370;-79
2023/07/13 06:53:55;;;;;;;6.28;4.13;;;;;;;37.90;42.69;95046.13;5009651;28;20415;-79
2023/07/13 06:56:21;;;;;;;6.22;4.53;;;;;;;38.78;40.38;95050.59;5016077;28;20441;-80
2023/07/13 06:58:47;;;;;;;6.47;5.10;;;;;;;37.94;40.04;95047.06;5042403;28;20026;-81
2023/07/13 07:01:12;;;;;;;5.28;4.78;;;;;;;35.29;51.30;95043.78;5009493;28;20018;-81
2023/07/13 07:03:37;;;;;;;16.08;5.10;;;;;;;33.97;52.94;95057.28;5017411;28;20032;-79
2023/07/13 07:06:13;;;;;;;6.15;5.35;;;;;;;34.29;50.39;95053.34;5043544;28;20105;-80
2023/07/13 07:08:39;;;;;;;5.22;4.72;;;;;;;33.68;48.05;95052.47;5016060;28;20034;-77
2023/07/13 07:11:04;;;;;;;5.93;5.43;;;;;;;33.40;51.64;95040.38;5017614;28;20034;-79
2023/07/13 07:13:30;;;;;;;6.03;4.30;;;;;;;33.70;56.38;95052.97;5019354;28;20032;-79
2023/07/13 07:15:55;;;;;;;5.60;4.03;;;;;;;34.18;52.45;95046.69;5011928;28;20041;-79
2023/07/13 07:18:21;;;;;;;5.85;4.60;;;;;;;35.88;49.85;95049.97;5026605;28;20179;-82
2023/07/13 07:20:46;;;;;;;6.13;4.47;;;;;;;34.07;49.22;95045.41;5020988;28;20495;-79
2023/07/13 07:23:12;;;;;;;6.88;4.40;;;;;;;33.49;51.54;95053.84;5000934;28;20481;-80
2023/07/13 07:25:41;;;;;;;5.45;4.95;;;;;;;32.80;54.83;95046.28;5003098;28;20029;-83
2023/07/13 07:28:08;;;;;;;7.68;4.72;;;;;;;32.92;56.77;95042.19;4999881;28;20500;-79
2023/07/13 07:30:33;;;;;;;5.40;4.90;;;;;;;33.07;53.52;95039.13;5002021;28;20021;-80
2023/07/13 07:32:58;;;;;;;5.90;4.80;;;;;;;32.17;53.93;95048.34;5000850;28;20037;-78
2023/07/13 07:35:24;;;;;;;6.70;4.97;;;;;;;32.47;55.42;95041.44;5018347;28;20049;-80
2023/07/13 07:37:50;;;;;;;8.10;4.97;;;;;;;32.93;58.41;95033.84;5034272;28;20025;-80
2023/07/13 07:40:15;;;;;;;13.00;5.25;;;;;;;33.23;58.61;95037.66;5003696;28;20025;-80
2023/07/13 07:42:41;;;;;;;8.32;4.95;;;;;;;32.81;54.60;95042.50;5019504;28;20044;-79
2023/07/13 07:45:07;;;;;;;22.35;11.20;;;;;;;32.50;61.00;95030.09;5000400;28;20022;-81
2023/07/13 07:47:32;;;;;;;6.88;4.95;;;;;;;31.90;58.28;95025.06;5001786;28;20034;-82
2023/07/13 07:49:57;;;;;;;17.17;8.18;;;;;;;32.56;60.35;95028.91;5033182;28;20041;-84
2023/07/13 07:52:23;;;;;;;29.42;13.50;;;;;;;32.24;60.44;95019.19;5003315;28;20033;-80
2023/07/13 07:54:48;;;;;;;10.38;5.00;;;;;;;32.43;56.79;95022.47;4999922;28;20072;-81
2023/07/13 07:57:14;;;;;;;5.50;5.00;;;;;;;32.12;59.53;95025.13;5012423;28;20199;-79
2023/07/13 07:59:39;;;;;;;15.35;8.05;;;;;;;32.55;62.08;95017.38;5001404;28;20112;-80
2023/07/13 08:13:18;;;;;;;6.22;5.40;;;;;;;32.31;61.78;95012.31;5093862;27;20408;-77
2023/07/13 08:15:43;;;;;;;12.77;7.22;;;;;;;33.00;63.89;95019.97;5080940;28;20412;-78
2023/07/13 08:18:09;;;;;;;6.90;5.40;;;;;;;32.67;60.18;95006.09;5097184;28;20027;-75
2023/07/13 08:20:38;;;;;;;6.18;5.50;;;;;;;32.20;56.00;94988.75;5083692;28;20107;-78
2023/07/13 08:23:04;;;;;;;5.45;4.95;;;;;;;31.93;56.18;94994.97;5079529;28;20396;-76
2023/07/13 08:25:31;;;;;;;6.45;5.45;;;;;;;31.52;56.39;94988.94;5081268;28;20652;-77
2023/07/13 08:27:57;;;;;;;8.35;5.40;;;;;;;32.02;60.34;94982.41;5098255;28;20455;-77
2023/07/13 08:30:23;;;;;;;6.10;5.60;;;;;;;31.98;62.72;94994.84;5097462;28;20065;-76
2023/07/13 08:32:49;;;;;;;7.53;5.30;;;;;;;32.32;62.97;94991.66;5097303;28;20040;-78
2023/07/13 08:35:15;;;;;;;7.40;4.95;;;;;;;32.84;69.98;94987.38;5097156;28;20028;-77
2023/07/13 08:37:41;;;;;;;6.93;5.15;;;;;;;33.05;65.56;94984.91;5075251;28;20021;-77
2023/07/13 08:40:09;;;;;;;5.18;4.70;;;;;;;32.67;59.49;94979.25;5081998;28;20035;-77
2023/07/13 08:42:57;;;;;;;4.93;4.22;;;;;;;32.80;69.23;94991.78;5065512;28;20024;-77
2023/07/13 08:45:28;;;;;;;7.30;5.25;;;;;;;32.31;63.48;94992.75;5079500;28;20058;-76
2023/07/13 08:47:59;;;;;;;5.22;4.78;;;;;;;31.20;65.50;94977.28;5082552;28;20035;-76
2023/07/13 08:50:29;;;;;;;4.47;4.07;;;;;;;32.38;64.48;94985.06;5082788;28;20109;-77
2023/07/13 08:52:55;;;;;;;5.78;4.55;;;;;;;32.53;59.36;94973.13;5077669;28;20362;-76
2023/07/13 08:55:25;;;;;;;5.45;4.88;;;;;;;33.12;65.44;94969.19;5097449;28;20028;-77
2023/07/13 08:58:04;;;;;;;7.03;4.88;;;;;;;32.19;70.33;94971.06;5090927;28;20424;-76
2023/07/13 09:00:52;;;;;;;9.20;4.88;;;;;;;32.51;63.79;94978.03;5082582;28;20024;-77
2023/07/13 09:03:23;;;;;;;6.65;4.88;;;;;;;32.51;68.60;94968.09;5080785;28;20047;-76
2023/07/13 09:05:57;;;;;;;5.63;5.20;;;;;;;32.24;71.04;94973.59;5081695;28;20473;-76
2023/07/13 09:08:34;;;;;;;6.32;5.60;;;;;;;31.76;67.55;94970.69;5067470;28;20056;-76
2023/07/13 09:11:08;;;;;;;8.77;4.90;;;;;;;32.53;62.94;94975.81;5075377;28;20024;-76
2023/07/13 09:13:43;;;;;;;5.03;4.18;;;;;;;33.29;60.74;94972.72;5075154;28;20050;-76
2023/07/13 09:16:09;;;;;;;8.80;4.50;;;;;;;33.42;53.99;94962.94;5071357;28;20024;-76
2023/07/13 09:18:46;;;;;;;4.88;3.88;;;;;;;33.33;55.66;94975.53;5057675;28;20113;-76
2023/07/13 09:21:15;;;;;;;10.00;4.80;;;;;;;33.26;58.12;94985.97;5063465;28;20497;-77
2023/07/13 09:23:41;;;;;;;17.00;7.75;;;;;;;33.22;60.83;94993.06;5060831;28;20033;-75
2023/07/13 09:26:13;;;;;;;6.88;4.93;;;;;;;33.02;60.77;94998.97;5063198;28;20028;-75
2023/07/13 09:28:42;;;;;;;5.05;4.65;;;;;;;32.57;59.70;94999.09;5043869;28;20063;-75
2023/07/13 09:31:13;;;;;;;7.60;5.03;;;;;;;32.96;62.32;94992.94;5061637;28;20028;-76
2023/07/13 09:33:39;;;;;;;7.57;4.68;;;;;;;33.15;61.13;94992.72;5061639;28;20401;-74
2023/07/13 09:36:29;;;;;;;5.55;4.95;;;;;;;33.52;61.57;94984.13;5060187;28;20032;-75
2023/07/13 09:39:20;;;;;;;4.72;4.32;;;;;;;33.67;61.23;94983.69;5055666;28;20097;-75
2023/07/13 09:41:47;;;;;;;5.72;5.18;;;;;;;33.72;63.68;94980.03;5060894;28;20040;-75
2023/07/13 09:44:15;;;;;;;5.47;4.72;;;;;;;32.95;59.67;94979.81;5066340;28;20047;-75
2023/07/13 09:46:52;;;;;;;5.40;4.88;;;;;;;33.18;62.48;94987.53;5062969;28;20054;-74
2023/07/13 09:49:18;;;;;;;7.60;4.60;;;;;;;33.65;62.74;94982.44;5059212;28;20038;-76
2023/07/13 09:51:44;;;;;;;4.70;4.30;;;;;;;33.73;58.04;94984.31;5068377;28;20036;-76
2023/07/13 09:54:24;;;;;;;7.55;4.63;;;;;;;33.92;59.32;94976.75;5065865;28;20025;-75
2023/07/13 09:56:56;;;;;;;5.68;4.55;;;;;;;33.85;59.60;94985.28;5071875;28;20024;-74
2023/07/13 09:59:26;;;;;;;5.13;4.50;;;;;;;33.78;56.59;94979.56;5064561;28;20020;-73
2023/07/13 10:01:52;;;;;;;11.95;4.85;;;;;;;33.67;54.06;94967.56;5065675;28;20032;-74
2023/07/13 10:04:19;;;;;;;5.38;4.88;;;;;;;33.84;58.34;94962.19;5065468;28;20532;-75
2023/07/13 10:06:46;;;;;;;10.65;4.35;;;;;;;33.95;59.87;94962.66;5066314;28;20160;-74
2023/07/13 10:09:16;;;;;;;7.63;4.97;;;;;;;34.21;62.38;94965.34;5066727;28;20033;-76
2023/07/13 10:11:42;;;;;;;5.93;4.28;;;;;;;33.96;61.71;94955.38;5062734;28;20050;-75
2023/07/13 10:14:23;;;;;;;9.07;4.25;;;;;;;34.19;59.73;94948.75;5069053;28;20428;-76
2023/07/13 10:16:50;;;;;;;10.13;4.20;;;;;;;34.16;58.75;94946.69;5064203;28;20067;-75
2023/07/13 10:19:15;;;;;;;8.18;5.13;;;;;;;34.16;61.13;94946.69;5065729;28;20024;-75
2023/07/13 10:21:54;;;;;;;6.85;4.50;;;;;;;33.99;62.14;94943.97;5067953;28;20039;-75
2023/07/13 10:24:23;;;;;;;9.13;5.30;;;;;;;33.94;58.96;94946.84;5064645;28;20024;-75
2023/07/13 10:27:19;;;;;;;5.40;4.90;;;;;;;34.18;64.89;94939.09;5067439;28;20024;-74
2023/07/13 10:30:13;;;;;;;7.63;4.40;;;;;;;34.11;63.06;94928.81;5089208;28;20067;-76
2023/07/13 10:32:38;;;;;;;12.90;4.32;;;;;;;34.11;56.92;94936.88;5067190;28;20039;-75
2023/07/13 10:35:05;;;;;;;4.80;4.32;;;;;;;34.25;62.29;94936.69;5069412;28;20028;-75
2023/07/13 10:37:41;;;;;;;6.00;4.97;;;;;;;34.20;56.52;94931.47;5060986;28;20032;-75
2023/07/13 10:40:14;;;;;;;8.82;4.22;;;;;;;34.14;53.29;94935.44;5075018;28;20033;-75
2023/07/13 10:42:43;;;;;;;6.82;4.28;;;;;;;34.28;54.84;94927.97;5064083;28;20024;-76
2023/07/13 10:45:19;;;;;;;10.70;5.47;;;;;;;34.19;59.51;94928.00;5068867;28;20101;-76
2023/07/13 10:47:45;;;;;;;5.15;4.30;;;;;;;34.30;56.75;94925.75;5065693;28;20035;-75
2023/07/13 10:50:25;;;;;;;6.88;4.05;;;;;;;34.39;60.17;94923.81;5059850;28;20028;-76
2023/07/13 10:52:56;;;;;;;7.80;4.60;;;;;;;34.49;60.94;94928.84;5076287;28;20062;-75
2023/07/13 10:55:42;;;;;;;7.40;4.75;;;;;;;34.34;60.95;94929.38;5061443;28;20115;-76
2023/07/13 10:58:18;;;;;;;8.00;4.60;;;;;;;34.28;56.42;94914.53;5062798;28;20036;-75
2023/07/13 11:01:07;;;;;;;6.82;4.45;;;;;;;34.29;56.84;94919.56;5075805;28;20031;-76
2023/07/13 11:03:35;;;;;;;5.47;4.53;;;;;;;34.55;58.21;94902.56;5061050;28;20021;-76
2023/07/13 11:06:21;;;;;;;7.22;4.53;;;;;;;34.47;61.38;94898.00;5065447;28;20023;-77
2023/07/13 11:08:47;;;;;;;5.95;4.80;;;;;;;34.58;65.23;94910.75;5066276;28;20567;-77
2023/07/13 11:11:25;;;;;;;9.60;4.50;;;;;;;34.43;57.04;94898.66;5046912;28;20052;-75
2023/07/13 11:13:50;;;;;;;;;;;;;;;34.46;59.06;94899.09;5072018;28;20115;-77
2023/07/13 11:16:15;;;;;;;5.40;4.90;;;;;;;34.28;53.39;94885.72;5061005;28;20479;-77
2023/07/13 11:18:45;;;;;;;6.80;4.32;;;;;;;34.49;62.67;94875.03;5060025;28;20285;-78
2023/07/13 11:21:21;;;;;;;6.00;4.50;;;;;;;34.61;57.23;94885.94;5061608;28;20532;-77
2023/07/13 11:24:04;;;;;;;4.75;3.75;;;;;;;34.65;58.82;94880.69;5060249;28;20107;-77
2023/07/13 11:26:48;;;;;;;5.95;4.57;;;;;;;34.39;55.84;94881.56;5068858;28;20393;-76
2023/07/13 11:29:17;;;;;;;4.70;4.28;;;;;;;34.62;60.44;94884.81;5067667;28;20123;-77
2023/07/13 11:31:43;;;;;;;7.35;3.83;;;;;;;34.66;52.54;94885.75;5063914;28;20460;-77
2023/07/13 11:34:15;;;;;;;16.73;4.60;;;;;;;34.57;49.50;94884.19;5045567;28;20100;-79
2023/07/13 11:36:43;;;;;;;4.80;4.20;;;;;;;34.53;45.71;94873.28;5065312;28;20035;-78
2023/07/13 11:39:11;;;;;;;;;;;;;;;34.22;44.22;94873.56;5063522;28;20100;-76
2023/07/13 11:41:44;;;;;;;5.88;3.78;;;;;;;34.63;47.55;94870.25;5066272;28;20348;-78
2023/07/13 11:44:19;;;;;;;5.90;4.35;;;;;;;34.92;51.42;94867.56;5062776;28;20441;-78